Time,TemperatureF,DewpointF,PressureIn,WindDirection,WindDirectionDegrees,WindSpeedMPH,WindSpeedGustMPH,Humidity,HourlyPrecipIn,Conditions,Clouds,dailyrainin,SoftwareType,DateUTC
2013-02-27 00:09:00,40.3,33.3,29.57,ESE,112,1.8,7.4,76,0.00,,,0.00,WUHU21623XXSP,2013-02-27 05:09:00,
2013-02-27 00:19:00,40.3,33.3,29.57,SW,225,0.0,7.4,76,0.00,,,0.00,WUHU21623XXSP,2013-02-27 05:19:00,
2013-02-27 00:29:00,40.1,33.4,29.57,SW,225,0.0,2.9,77,0.00,,,0.00,WUHU21623XXSP,2013-02-27 05:29:00,
2013-02-27 00:39:00,39.9,33.3,29.56,SSW,202,3.6,4.0,77,0.00,,,0.00,WUHU21623XXSP,2013-02-27 05:39:00,
2013-02-27 00:49:00,39.9,33.6,29.56,NW,315,0.0,0.0,78,0.00,,,0.00,WUHU21623XXSP,2013-02-27 05:49:00,
2013-02-27 00:59:00,39.9,33.6,29.56,SSW,202,1.3,3.4,78,0.00,,,0.00,WUHU21623XXSP,2013-02-27 05:59:00,
2013-02-27 01:09:00,39.7,33.8,29.56,East,90,0.0,1.3,79,0.01,,,0.01,WUHU21623XXSP,2013-02-27 06:09:00,
2013-02-27 01:19:00,39.6,33.6,29.57,East,90,0.0,0.0,79,0.01,,,0.01,WUHU21623XXSP,2013-02-27 06:19:00,
2013-02-27 01:29:00,39.4,33.8,29.57,SW,225,0.0,3.6,80,0.01,,,0.01,WUHU21623XXSP,2013-02-27 06:29:00,
2013-02-27 01:39:00,39.4,33.8,29.58,West,270,0.0,0.0,81,0.01,,,0.01,WUHU21623XXSP,2013-02-27 06:39:00,
2013-02-27 01:49:00,39.0,33.7,29.58,SW,225,0.0,0.0,81,0.02,,,0.02,WUHU21623XXSP,2013-02-27 06:49:00,
2013-02-27 01:59:00,39.0,34.0,29.58,SW,225,0.0,0.0,82,0.02,,,0.02,WUHU21623XXSP,2013-02-27 06:59:00,
2013-02-27 02:09:00,39.0,34.0,29.57,SW,225,1.3,1.3,82,0.01,,,0.02,WUHU21623XXSP,2013-02-27 07:09:00,
2013-02-27 02:19:00,38.8,33.8,29.57,South,180,0.0,0.0,82,0.02,,,0.02,WUHU21623XXSP,2013-02-27 07:19:00,
2013-02-27 02:29:00,38.8,34.1,29.57,South,180,0.0,0.0,83,0.02,,,0.02,WUHU21623XXSP,2013-02-27 07:29:00,
2013-02-27 02:39:00,38.8,34.1,29.57,South,180,0.0,0.0,83,0.02,,,0.02,WUHU21623XXSP,2013-02-27 07:39:00,
2013-02-27 02:49:00,38.7,33.9,29.58,South,180,0.0,0.0,83,0.02,,,0.04,WUHU21623XXSP,2013-02-27 07:49:00,
2013-02-27 02:59:00,38.7,33.9,29.57,South,180,0.0,0.0,83,0.02,,,0.04,WUHU21623XXSP,2013-02-27 07:59:00,
2013-02-27 03:09:00,38.5,34.1,29.58,South,180,0.0,0.0,84,0.04,,,0.05,WUHU21623XXSP,2013-02-27 08:09:00,
2013-02-27 03:20:00,38.5,34.1,29.58,ESE,112,0.0,0.0,84,0.04,,,0.06,WUHU21623XXSP,2013-02-27 08:20:00,
2013-02-27 03:30:00,38.5,34.3,29.57,SSW,202,0.0,0.0,85,0.05,,,0.07,WUHU21623XXSP,2013-02-27 08:30:00,
2013-02-27 03:40:00,38.5,34.3,29.58,South,180,0.0,0.0,85,0.04,,,0.07,WUHU21623XXSP,2013-02-27 08:40:00,
2013-02-27 03:50:00,38.8,34.7,29.58,SSW,202,0.0,0.0,85,0.04,,,0.08,WUHU21623XXSP,2013-02-27 08:50:00,
2013-02-27 04:00:00,38.8,34.7,29.57,SSW,202,0.0,0.0,85,0.04,,,0.08,WUHU21623XXSP,2013-02-27 09:00:00,
2013-02-27 04:10:00,38.8,34.7,29.58,SSW,202,0.0,0.0,85,0.04,,,0.09,WUHU21623XXSP,2013-02-27 09:10:00,
2013-02-27 04:20:00,39.0,34.9,29.58,SSW,202,0.0,0.0,85,0.02,,,0.09,WUHU21623XXSP,2013-02-27 09:20:00,
2013-02-27 04:30:00,39.0,34.9,29.58,SSW,202,0.0,0.0,85,0.02,,,0.09,WUHU21623XXSP,2013-02-27 09:30:00,
2013-02-27 04:40:00,39.0,34.9,29.59,SSW,202,0.0,0.0,85,0.02,,,0.10,WUHU21623XXSP,2013-02-27 09:40:00,
2013-02-27 04:50:00,39.0,34.9,29.59,SSW,202,0.0,0.0,85,0.02,,,0.10,WUHU21623XXSP,2013-02-27 09:50:00,
2013-02-27 05:00:00,39.2,35.3,29.59,SSW,202,0.0,0.0,86,0.02,,,0.11,WUHU21623XXSP,2013-02-27 10:00:00,
2013-02-27 05:10:00,39.4,35.5,29.59,SSW,202,0.0,0.0,86,0.02,,,0.11,WUHU21623XXSP,2013-02-27 10:10:00,
2013-02-27 05:20:00,39.4,35.5,29.59,SW,225,0.0,0.0,86,0.03,,,0.12,WUHU21623XXSP,2013-02-27 10:20:00,
2013-02-27 05:30:00,39.4,35.5,29.59,SSW,202,0.0,0.0,86,0.03,,,0.12,WUHU21623XXSP,2013-02-27 10:30:00,
2013-02-27 05:40:00,39.4,35.5,29.60,South,180,0.0,0.0,86,0.02,,,0.12,WUHU21623XXSP,2013-02-27 10:40:00,
2013-02-27 05:50:00,39.4,35.5,29.60,SSW,202,0.0,0.0,86,0.02,,,0.13,WUHU21623XXSP,2013-02-27 10:50:00,
2013-02-27 06:00:00,39.4,35.5,29.61,WNW,292,0.0,0.0,86,0.02,,,0.13,WUHU21623XXSP,2013-02-27 11:00:00,
2013-02-27 06:10:00,39.4,35.5,29.61,WNW,292,0.0,0.0,86,0.02,,,0.13,WUHU21623XXSP,2013-02-27 11:10:00,
2013-02-27 06:20:00,39.2,35.3,29.61,WNW,292,0.0,0.0,86,0.02,,,0.14,WUHU21623XXSP,2013-02-27 11:20:00,
2013-02-27 06:30:00,39.2,35.3,29.61,West,270,0.0,0.0,86,0.02,,,0.14,WUHU21623XXSP,2013-02-27 11:30:00,
2013-02-27 06:40:00,39.2,35.3,29.62,WSW,247,0.0,0.0,86,0.02,,,0.14,WUHU21623XXSP,2013-02-27 11:40:00,
2013-02-27 06:50:00,39.2,35.3,29.62,SW,225,0.0,0.0,86,0.02,,,0.15,WUHU21623XXSP,2013-02-27 11:50:00,
2013-02-27 07:00:00,39.2,35.3,29.62,SW,225,0.0,0.0,86,0.03,,,0.16,WUHU21623XXSP,2013-02-27 12:00:00,
2013-02-27 07:10:00,39.0,35.2,29.62,SSW,202,2.5,2.5,86,0.04,,,0.17,WUHU21623XXSP,2013-02-27 12:10:00,
2013-02-27 07:20:00,39.0,35.2,29.62,South,180,0.0,0.0,86,0.03,,,0.17,WUHU21623XXSP,2013-02-27 12:20:00,
2013-02-27 07:30:00,38.8,35.2,29.63,SSW,202,0.0,0.0,86,0.02,,,0.17,WUHU21623XXSP,2013-02-27 12:30:00,
2013-02-27 07:40:00,38.8,35.0,29.64,SSW,202,0.0,0.0,86,0.02,,,0.17,WUHU21623XXSP,2013-02-27 12:40:00,
2013-02-27 07:50:00,38.8,35.0,29.64,South,180,0.0,0.0,86,0.02,,,0.17,WUHU21623XXSP,2013-02-27 12:50:00,
2013-02-27 08:00:00,38.8,34.7,29.65,South,180,0.0,0.0,85,0.01,,,0.17,WUHU21623XXSP,2013-02-27 13:00:00,
2013-02-27 08:10:00,38.5,34.1,29.65,SSW,202,0.0,0.0,84,0.00,,,0.17,WUHU21623XXSP,2013-02-27 13:10:00,
2013-02-27 08:20:00,38.5,34.1,29.66,SSW,202,1.6,1.6,84,0.00,,,0.17,WUHU21623XXSP,2013-02-27 13:20:00,
2013-02-27 08:30:00,38.7,34.2,29.67,SSW,202,0.0,0.0,84,0.00,,,0.17,WUHU21623XXSP,2013-02-27 13:30:00,
2013-02-27 08:40:00,38.5,34.3,29.67,WSW,247,0.0,0.0,85,0.00,,,0.17,WUHU21623XXSP,2013-02-27 13:40:00,
2013-02-27 08:50:00,38.5,34.3,29.67,SSW,202,0.0,0.0,85,0.01,,,0.18,WUHU21623XXSP,2013-02-27 13:50:00,
2013-02-27 09:00:00,38.5,34.3,29.68,SSW,202,0.0,0.0,85,0.02,,,0.18,WUHU21623XXSP,2013-02-27 14:00:00,
2013-02-27 09:10:00,39.4,35.2,29.68,SW,225,0.0,2.5,85,0.02,,,0.18,WUHU21623XXSP,2013-02-27 14:10:00,
2013-02-27 09:20:00,39.7,35.6,29.68,South,180,0.0,0.0,85,0.02,,,0.18,WUHU21623XXSP,2013-02-27 14:20:00,
2013-02-27 09:30:00,40.3,35.8,29.68,SW,225,0.0,8.3,84,0.02,,,0.18,WUHU21623XXSP,2013-02-27 14:30:00,
2013-02-27 09:40:00,40.3,35.5,29.68,SE,135,0.0,0.0,83,0.02,,,0.18,WUHU21623XXSP,2013-02-27 14:40:00,
2013-02-27 09:50:00,39.9,34.8,29.69,SSW,202,0.0,0.0,82,0.01,,,0.18,WUHU21623XXSP,2013-02-27 14:50:00,
2013-02-27 10:00:00,39.7,34.7,29.69,SSW,202,0.0,0.0,82,0.00,,,0.18,WUHU21623XXSP,2013-02-27 15:00:00,
2013-02-27 10:10:00,40.1,34.7,29.69,SW,225,0.0,0.0,81,0.00,,,0.18,WUHU21623XXSP,2013-02-27 15:10:00,
2013-02-27 10:20:00,40.8,35.1,29.69,West,270,0.0,5.1,80,0.00,,,0.18,WUHU21623XXSP,2013-02-27 15:20:00,
2013-02-27 10:30:00,40.5,34.6,29.68,SW,225,0.0,5.6,79,0.00,,,0.18,WUHU21623XXSP,2013-02-27 15:30:00,
2013-02-27 10:40:00,40.1,34.1,29.68,SSW,202,0.0,2.2,79,0.00,,,0.18,WUHU21623XXSP,2013-02-27 15:40:00,
2013-02-27 10:50:00,40.1,34.1,29.68,South,180,4.7,4.7,79,0.00,,,0.18,WUHU21623XXSP,2013-02-27 15:50:00,
2013-02-27 11:00:00,40.3,33.9,29.68,WSW,247,0.0,0.0,78,0.00,,,0.18,WUHU21623XXSP,2013-02-27 16:00:00,
2013-02-27 11:10:00,40.6,34.3,29.68,WSW,247,1.6,1.6,78,0.00,,,0.18,WUHU21623XXSP,2013-02-27 16:10:00,
2013-02-27 11:20:00,40.8,34.1,29.68,South,180,5.1,7.8,77,0.00,,,0.18,WUHU21623XXSP,2013-02-27 16:20:00,
2013-02-27 11:30:00,40.8,34.1,29.68,SSW,202,8.7,8.7,77,0.00,,,0.18,WUHU21623XXSP,2013-02-27 16:30:00,
2013-02-27 11:40:00,40.6,34.1,29.68,SW,225,5.1,5.1,77,0.00,,,0.18,WUHU21623XXSP,2013-02-27 16:40:00,
2013-02-27 11:50:00,40.8,34.1,29.68,SW,225,4.0,4.5,77,0.00,,,0.18,WUHU21623XXSP,2013-02-27 16:50:00,
2013-02-27 12:00:00,40.6,33.9,29.67,SSW,202,1.1,2.5,77,0.00,,,0.18,WUHU21623XXSP,2013-02-27 17:00:00,
2013-02-27 12:10:00,41.2,34.4,29.67,South,180,2.0,2.0,77,0.00,,,0.18,WUHU21623XXSP,2013-02-27 17:10:00,
2013-02-27 12:20:00,41.4,34.6,29.67,SW,225,4.0,4.0,77,0.00,,,0.18,WUHU21623XXSP,2013-02-27 17:20:00,
2013-02-27 12:30:00,41.5,34.8,29.67,SSW,202,0.4,7.8,77,0.00,,,0.18,WUHU21623XXSP,2013-02-27 17:30:00,
2013-02-27 12:40:00,41.5,34.5,29.68,SW,225,8.3,8.3,76,0.00,,,0.18,WUHU21623XXSP,2013-02-27 17:40:00,
2013-02-27 12:50:00,41.2,34.1,29.67,SSW,202,3.8,8.1,76,0.00,,,0.18,WUHU21623XXSP,2013-02-27 17:50:00,
2013-02-27 13:00:00,41.2,34.4,29.67,South,180,2.5,3.4,77,0.00,,,0.18,WUHU21623XXSP,2013-02-27 18:00:00,
2013-02-27 13:10:00,41.2,34.8,29.67,WSW,247,2.7,2.7,78,0.00,,,0.18,WUHU21623XXSP,2013-02-27 18:10:00,
2013-02-27 13:20:00,40.8,34.4,29.67,SSW,202,1.3,1.3,78,0.00,,,0.18,WUHU21623XXSP,2013-02-27 18:20:00,
2013-02-27 13:30:00,41.0,34.6,29.67,SSW,202,1.3,1.3,78,0.00,,,0.18,WUHU21623XXSP,2013-02-27 18:30:00,
2013-02-27 13:40:00,41.0,34.9,29.67,SW,225,0.0,2.7,79,0.00,,,0.18,WUHU21623XXSP,2013-02-27 18:40:00,
2013-02-27 13:50:00,40.8,34.7,29.67,WSW,247,0.0,3.4,79,0.00,,,0.18,WUHU21623XXSP,2013-02-27 18:50:00,
2013-02-27 14:00:00,41.0,34.9,29.66,WSW,247,1.6,3.4,79,0.01,,,0.19,WUHU21623XXSP,2013-02-27 19:00:00,
2013-02-27 14:10:00,41.5,35.3,29.66,WSW,247,1.8,1.8,79,0.01,,,0.19,WUHU21623XXSP,2013-02-27 19:10:00,
2013-02-27 14:20:00,42.4,36.0,29.66,West,270,0.0,0.0,78,0.01,,,0.19,WUHU21623XXSP,2013-02-27 19:20:00,
2013-02-27 14:30:00,42.4,36.0,29.66,SW,225,0.0,0.0,78,0.01,,,0.19,WUHU21623XXSP,2013-02-27 19:30:00,
2013-02-27 14:40:00,42.1,35.7,29.67,SSW,202,0.7,0.7,78,0.01,,,0.19,WUHU21623XXSP,2013-02-27 19:40:00,
2013-02-27 14:50:00,39.7,33.4,29.67,SW,225,0.0,1.1,78,0.02,,,0.21,WUHU21623XXSP,2013-02-27 19:50:00,
2013-02-27 15:00:00,39.4,33.8,29.67,South,180,0.0,0.0,80,0.02,,,0.21,WUHU21623XXSP,2013-02-27 20:00:00,
2013-02-27 15:10:00,39.4,34.1,29.67,SSW,202,0.0,0.0,80,0.02,,,0.21,WUHU21623XXSP,2013-02-27 20:10:00,
2013-02-27 15:20:00,39.7,34.1,29.67,SSW,202,2.2,2.2,80,0.02,,,0.21,WUHU21623XXSP,2013-02-27 20:20:00,
2013-02-27 15:30:00,39.7,34.6,29.67,SW,225,0.0,0.0,80,0.02,,,0.21,WUHU21623XXSP,2013-02-27 20:30:00,
2013-02-27 15:40:00,39.7,34.1,29.67,SSW,202,0.0,0.0,80,0.02,,,0.21,WUHU21623XXSP,2013-02-27 20:40:00,
2013-02-27 15:50:00,39.9,34.3,29.67,SSW,202,0.0,2.9,80,0.00,,,0.21,WUHU21623XXSP,2013-02-27 20:50:00,
2013-02-27 16:00:00,39.9,34.6,29.67,SSW,202,0.0,0.0,81,0.00,,,0.21,WUHU21623XXSP,2013-02-27 21:00:00,
2013-02-27 16:10:00,39.7,34.1,29.67,SSW,202,0.0,0.0,80,0.00,,,0.21,WUHU21623XXSP,2013-02-27 21:10:00,
2013-02-27 16:20:00,39.6,33.9,29.67,SW,225,0.0,0.0,80,0.00,,,0.21,WUHU21623XXSP,2013-02-27 21:20:00,
2013-02-27 16:30:00,39.4,34.1,29.67,South,180,0.0,0.0,81,0.00,,,0.21,WUHU21623XXSP,2013-02-27 21:30:00,
2013-02-27 16:40:00,39.4,34.1,29.67,SSW,202,0.0,0.0,81,0.00,,,0.21,WUHU21623XXSP,2013-02-27 21:40:00,
2013-02-27 16:50:00,39.2,33.9,29.67,SSW,202,0.0,0.0,81,0.00,,,0.21,WUHU21623XXSP,2013-02-27 21:50:00,
2013-02-27 17:00:00,39.0,33.7,29.67,SSW,202,0.0,0.0,81,0.00,,,0.21,WUHU21623XXSP,2013-02-27 22:00:00,
2013-02-27 17:10:00,39.0,33.7,29.68,SSW,202,0.0,0.0,81,0.00,,,0.21,WUHU21623XXSP,2013-02-27 22:10:00,
2013-02-27 17:20:00,39.0,33.7,29.68,West,270,0.0,0.0,81,0.00,,,0.21,WUHU21623XXSP,2013-02-27 22:20:00,
2013-02-27 17:30:00,38.3,33.3,29.69,WNW,292,0.0,0.0,82,0.00,,,0.21,WUHU21623XXSP,2013-02-27 22:30:00,
2013-02-27 17:40:00,37.9,32.9,29.69,West,270,0.0,0.0,82,0.01,,,0.21,WUHU21623XXSP,2013-02-27 22:40:00,
2013-02-27 17:50:00,37.8,32.8,29.69,SW,225,1.6,3.4,82,0.01,,,0.21,WUHU21623XXSP,2013-02-27 22:50:00,
2013-02-27 18:00:00,37.6,32.9,29.69,SW,225,0.0,1.6,83,0.01,,,0.21,WUHU21623XXSP,2013-02-27 23:00:00,
2013-02-27 18:10:00,37.6,32.9,29.69,SW,225,0.0,0.0,83,0.01,,,0.21,WUHU21623XXSP,2013-02-27 23:10:00,
2013-02-27 18:20:00,37.6,32.9,29.69,SSW,202,0.0,0.0,83,0.01,,,0.21,WUHU21623XXSP,2013-02-27 23:20:00,
2013-02-27 18:30:00,37.6,32.9,29.69,SSW,202,0.0,0.0,83,0.00,,,0.21,WUHU21623XXSP,2013-02-27 23:30:00,
2013-02-27 18:40:00,37.2,32.8,29.70,SSW,202,0.0,0.0,84,0.00,,,0.21,WUHU21623XXSP,2013-02-27 23:40:00,
2013-02-27 18:50:00,37.2,32.8,29.70,South,180,0.0,0.0,84,0.00,,,0.21,WUHU21623XXSP,2013-02-27 23:50:00,
2013-02-27 19:00:00,37.2,32.8,29.70,SSW,202,2.5,2.5,84,0.00,,,0.21,WUHU21623XXSP,2013-02-28 00:00:00,
2013-02-27 19:10:00,37.2,32.8,29.70,SSW,202,0.0,1.1,84,0.00,,,0.21,WUHU21623XXSP,2013-02-28 00:10:00,
2013-02-27 19:20:00,37.0,32.6,29.70,SSW,202,0.0,0.0,84,0.02,,,0.23,WUHU21623XXSP,2013-02-28 00:20:00,
2013-02-27 19:30:00,37.2,32.9,29.70,SSW,202,0.0,0.0,85,0.02,,,0.24,WUHU21623XXSP,2013-02-28 00:30:00,
2013-02-27 19:40:00,37.0,32.9,29.70,SSW,202,0.0,0.0,85,0.03,,,0.25,WUHU21623XXSP,2013-02-28 00:40:00,
2013-02-27 19:50:00,36.9,32.7,29.70,SSW,202,0.0,0.0,85,0.03,,,0.25,WUHU21623XXSP,2013-02-28 00:50:00,
2013-02-27 20:00:00,36.5,32.4,29.69,South,180,0.0,0.0,85,0.04,,,0.25,WUHU21623XXSP,2013-02-28 01:00:00,
2013-02-27 20:10:00,36.3,32.2,29.69,SW,225,0.0,0.0,85,0.05,,,0.26,WUHU21623XXSP,2013-02-28 01:10:00,
2013-02-27 20:21:00,36.3,32.2,29.69,SSW,202,0.0,0.0,85,0.03,,,0.26,WUHU21623XXSP,2013-02-28 01:21:00,
2013-02-27 20:31:00,36.1,32.0,29.69,SSW,202,0.0,0.0,85,0.03,,,0.27,WUHU21623XXSP,2013-02-28 01:31:00,
2013-02-27 20:41:00,36.1,32.0,29.69,SSW,202,0.0,0.0,85,0.02,,,0.27,WUHU21623XXSP,2013-02-28 01:41:00,
2013-02-27 20:51:00,36.1,32.0,29.69,SSW,202,0.0,0.0,85,0.02,,,0.27,WUHU21623XXSP,2013-02-28 01:51:00,
2013-02-27 21:01:00,36.1,32.0,29.69,SSW,202,0.0,0.0,85,0.02,,,0.27,WUHU21623XXSP,2013-02-28 02:01:00,
2013-02-27 21:35:00,36.0,32.1,29.69,SSW,202,0.0,0.0,86,0.00,,,0.27,WUHU21623XXSP,2013-02-28 02:35:00,
2013-02-27 21:45:00,36.0,32.1,29.69,SSW,202,0.0,0.0,86,0.01,,,0.28,WUHU21623XXSP,2013-02-28 02:45:00,
2013-02-27 21:55:00,36.0,32.1,29.69,SW,225,0.0,0.0,86,0.01,,,0.28,WUHU21623XXSP,2013-02-28 02:55:00,
2013-02-27 22:05:00,36.0,32.1,29.69,SSW,202,0.0,0.0,86,0.01,,,0.28,WUHU21623XXSP,2013-02-28 03:05:00,
2013-02-27 22:15:00,35.8,31.9,29.69,South,180,0.0,0.0,86,0.01,,,0.28,WUHU21623XXSP,2013-02-28 03:15:00,
2013-02-27 22:25:00,35.6,31.7,29.69,SSW,202,0.0,0.0,86,0.01,,,0.28,WUHU21623XXSP,2013-02-28 03:25:00,
2013-02-27 22:35:00,35.6,31.7,29.69,SSW,202,0.0,0.0,86,0.01,,,0.28,WUHU21623XXSP,2013-02-28 03:35:00,
2013-02-27 22:54:00,34.3,30.2,29.69,WSW,247,0.0,5.8,85,0.00,,,0.28,WUHU21623XXSP,2013-02-28 03:54:00,
2013-02-27 23:04:00,34.3,30.2,29.70,SW,225,0.0,0.0,85,0.00,,,0.28,WUHU21623XXSP,2013-02-28 04:04:00,
2013-02-27 23:14:00,33.8,29.8,29.69,SSW,202,0.0,0.0,85,0.00,,,0.28,WUHU21623XXSP,2013-02-28 04:14:00,
2013-02-27 23:24:00,33.6,29.5,29.69,SSW,202,0.0,0.0,85,0.03,,,0.30,WUHU21623XXSP,2013-02-28 04:24:00,
2013-02-27 23:34:00,33.6,29.5,29.69,SSW,202,0.0,0.0,85,0.03,,,0.30,WUHU21623XXSP,2013-02-28 04:34:00,
2013-02-27 23:44:00,33.4,29.3,29.69,SSW,202,0.0,0.0,85,0.03,,,0.30,WUHU21623XXSP,2013-02-28 04:44:00,
2013-02-27 23:54:00,33.4,29.3,29.69,SE,135,0.0,0.0,85,0.03,,,0.30,WUHU21623XXSP,2013-02-28 04:54:00,